sensor_id;sensor_type;location;lat;lon;timestamp;temperature;humidity
7240;DHT22;3661;53.288;10.458;2022-08-14T00:00:30;22.10;91.30
7240;DHT22;3661;53.288;10.458;2022-08-14T00:03:02;22.10;91.40
7240;DHT22;3661;53.288;10.458;2022-08-14T00:05:34;22.10;91.50
7240;DHT22;3661;53.288;10.458;2022-08-14T00:08:06;22.10;91.60
7240;DHT22;3661;53.288;10.458;2022-08-14T00:10:38;22.10;91.60
7240;DHT22;3661;53.288;10.458;2022-08-14T00:13:13;22.10;91.70
7240;DHT22;3661;53.288;10.458;2022-08-14T00:15:47;22.10;91.80
7240;DHT22;3661;53.288;10.458;2022-08-14T00:18:23;22.10;91.80
7240;DHT22;3661;53.288;10.458;2022-08-14T00:20:57;22.10;91.80
7240;DHT22;3661;53.288;10.458;2022-08-14T00:23:30;22.10;91.80
7240;DHT22;3661;53.288;10.458;2022-08-14T00:26:02;22.10;92.00
7240;DHT22;3661;53.288;10.458;2022-08-14T00:28:36;22.10;91.90
7240;DHT22;3661;53.288;10.458;2022-08-14T00:31:08;22.00;92.00
7240;DHT22;3661;53.288;10.458;2022-08-14T00:33:40;22.10;92.10
7240;DHT22;3661;53.288;10.458;2022-08-14T00:36:12;22.00;92.10
7240;DHT22;3661;53.288;10.458;2022-08-14T00:38:44;22.00;92.00
7240;DHT22;3661;53.288;10.458;2022-08-14T00:41:17;22.00;92.10
7240;DHT22;3661;53.288;10.458;2022-08-14T00:43:50;22.00;92.20
7240;DHT22;3661;53.288;10.458;2022-08-14T00:46:22;22.00;92.20
7240;DHT22;3661;53.288;10.458;2022-08-14T00:48:54;22.00;92.30
7240;DHT22;3661;53.288;10.458;2022-08-14T00:51:27;22.00;92.30
7240;DHT22;3661;53.288;10.458;2022-08-14T00:54:00;22.00;92.20
7240;DHT22;3661;53.288;10.458;2022-08-14T00:56:33;21.90;92.20
7240;DHT22;3661;53.288;10.458;2022-08-14T00:59:06;21.90;92.30
7240;DHT22;3661;53.288;10.458;2022-08-14T01:01:39;21.90;92.30
7240;DHT22;3661;53.288;10.458;2022-08-14T01:04:11;21.90;92.50
7240;DHT22;3661;53.288;10.458;2022-08-14T01:06:44;21.90;92.40
7240;DHT22;3661;53.288;10.458;2022-08-14T01:09:17;21.90;92.40
7240;DHT22;3661;53.288;10.458;2022-08-14T01:11:52;21.80;92.30
7240;DHT22;3661;53.288;10.458;2022-08-14T01:14:26;21.80;92.40
7240;DHT22;3661;53.288;10.458;2022-08-14T01:16:58;21.80;92.40
7240;DHT22;3661;53.288;10.458;2022-08-14T01:19:30;21.80;92.60
7240;DHT22;3661;53.288;10.458;2022-08-14T01:22:21;21.70;92.60
7240;DHT22;3661;53.288;10.458;2022-08-14T01:24:53;21.70;92.70
7240;DHT22;3661;53.288;10.458;2022-08-14T01:27:27;21.70;92.80
7240;DHT22;3661;53.288;10.458;2022-08-14T01:29:59;21.70;93.00
7240;DHT22;3661;53.288;10.458;2022-08-14T01:32:33;21.60;93.00
7240;DHT22;3661;53.288;10.458;2022-08-14T01:35:08;21.60;93.10
7240;DHT22;3661;53.288;10.458;2022-08-14T01:37:44;21.60;93.20
7240;DHT22;3661;53.288;10.458;2022-08-14T01:40:21;21.60;93.20
7240;DHT22;3661;53.288;10.458;2022-08-14T01:42:53;21.60;93.30
7240;DHT22;3661;53.288;10.458;2022-08-14T01:45:26;21.50;93.30
7240;DHT22;3661;53.288;10.458;2022-08-14T01:47:58;21.50;93.50
7240;DHT22;3661;53.288;10.458;2022-08-14T01:50:31;21.50;93.60
7240;DHT22;3661;53.288;10.458;2022-08-14T01:53:05;21.50;93.70
7240;DHT22;3661;53.288;10.458;2022-08-14T01:55:38;21.50;93.70
7240;DHT22;3661;53.288;10.458;2022-08-14T01:58:10;21.40;93.80
7240;DHT22;3661;53.288;10.458;2022-08-14T02:00:44;21.40;93.80
7240;DHT22;3661;53.288;10.458;2022-08-14T02:03:16;21.40;93.90
7240;DHT22;3661;53.288;10.458;2022-08-14T02:05:48;21.40;93.90
7240;DHT22;3661;53.288;10.458;2022-08-14T02:08:22;21.40;94.00
7240;DHT22;3661;53.288;10.458;2022-08-14T02:10:57;21.30;94.20
7240;DHT22;3661;53.288;10.458;2022-08-14T02:13:48;21.40;94.30
7240;DHT22;3661;53.288;10.458;2022-08-14T02:16:22;21.30;94.40
7240;DHT22;3661;53.288;10.458;2022-08-14T02:18:57;21.30;94.50
7240;DHT22;3661;53.288;10.458;2022-08-14T02:21:30;21.30;94.60
7240;DHT22;3661;53.288;10.458;2022-08-14T02:24:06;21.20;94.60
7240;DHT22;3661;53.288;10.458;2022-08-14T02:26:41;21.20;94.80
7240;DHT22;3661;53.288;10.458;2022-08-14T02:29:19;21.20;95.00
7240;DHT22;3661;53.288;10.458;2022-08-14T02:31:59;21.10;95.00
7240;DHT22;3661;53.288;10.458;2022-08-14T02:34:33;21.10;95.10
7240;DHT22;3661;53.288;10.458;2022-08-14T02:37:08;21.00;95.20
7240;DHT22;3661;53.288;10.458;2022-08-14T02:39:43;21.00;95.40
7240;DHT22;3661;53.288;10.458;2022-08-14T02:42:18;21.00;95.60
7240;DHT22;3661;53.288;10.458;2022-08-14T02:44:51;20.90;95.60
7240;DHT22;3661;53.288;10.458;2022-08-14T02:47:23;21.00;95.80
7240;DHT22;3661;53.288;10.458;2022-08-14T02:49:56;20.90;95.90
7240;DHT22;3661;53.288;10.458;2022-08-14T02:52:28;20.90;96.10
7240;DHT22;3661;53.288;10.458;2022-08-14T02:55:02;20.80;96.20
7240;DHT22;3661;53.288;10.458;2022-08-14T02:57:35;20.80;96.30
7240;DHT22;3661;53.288;10.458;2022-08-14T03:00:09;20.80;96.50
7240;DHT22;3661;53.288;10.458;2022-08-14T03:02:42;20.70;96.50
7240;DHT22;3661;53.288;10.458;2022-08-14T03:05:15;20.60;96.70
7240;DHT22;3661;53.288;10.458;2022-08-14T03:07:47;20.60;96.90
7240;DHT22;3661;53.288;10.458;2022-08-14T03:10:20;20.60;97.20
7240;DHT22;3661;53.288;10.458;2022-08-14T03:12:52;20.60;97.20
7240;DHT22;3661;53.288;10.458;2022-08-14T03:15:25;20.50;97.30
7240;DHT22;3661;53.288;10.458;2022-08-14T03:17:57;20.50;97.40
7240;DHT22;3661;53.288;10.458;2022-08-14T03:20:29;20.40;97.50
7240;DHT22;3661;53.288;10.458;2022-08-14T03:23:01;20.40;97.60
7240;DHT22;3661;53.288;10.458;2022-08-14T03:25:35;20.40;97.80
7240;DHT22;3661;53.288;10.458;2022-08-14T03:28:08;20.30;97.90
7240;DHT22;3661;53.288;10.458;2022-08-14T03:30:41;20.30;98.10
7240;DHT22;3661;53.288;10.458;2022-08-14T03:33:13;20.20;98.30
7240;DHT22;3661;53.288;10.458;2022-08-14T03:35:45;20.20;98.60
7240;DHT22;3661;53.288;10.458;2022-08-14T03:38:17;20.20;98.70
7240;DHT22;3661;53.288;10.458;2022-08-14T03:40:51;20.10;98.90
7240;DHT22;3661;53.288;10.458;2022-08-14T03:43:23;20.10;98.90
7240;DHT22;3661;53.288;10.458;2022-08-14T03:45:56;20.10;99.20
7240;DHT22;3661;53.288;10.458;2022-08-14T03:48:30;20.00;99.30
7240;DHT22;3661;53.288;10.458;2022-08-14T03:51:02;20.00;99.40
7240;DHT22;3661;53.288;10.458;2022-08-14T03:53:34;20.00;99.50
7240;DHT22;3661;53.288;10.458;2022-08-14T03:56:09;19.90;99.60
7240;DHT22;3661;53.288;10.458;2022-08-14T03:58:46;19.90;99.90
7240;DHT22;3661;53.288;10.458;2022-08-14T04:01:19;19.80;99.90
7240;DHT22;3661;53.288;10.458;2022-08-14T04:03:54;19.80;99.90
7240;DHT22;3661;53.288;10.458;2022-08-14T04:06:36;19.80;99.90
7240;DHT22;3661;53.288;10.458;2022-08-14T04:09:08;19.70;99.90
7240;DHT22;3661;53.288;10.458;2022-08-14T04:11:42;19.70;99.90
7240;DHT22;3661;53.288;10.458;2022-08-14T04:14:14;19.60;99.90
7240;DHT22;3661;53.288;10.458;2022-08-14T04:16:46;19.60;99.90
7240;DHT22;3661;53.288;10.458;2022-08-14T04:19:19;19.60;99.90
7240;DHT22;3661;53.288;10.458;2022-08-14T04:21:53;19.60;99.90
7240;DHT22;3661;53.288;10.458;2022-08-14T04:24:25;19.50;99.90
7240;DHT22;3661;53.288;10.458;2022-08-14T04:27:00;19.50;99.90
7240;DHT22;3661;53.288;10.458;2022-08-14T04:29:32;19.50;99.90
7240;DHT22;3661;53.288;10.458;2022-08-14T04:32:05;19.50;99.90
7240;DHT22;3661;53.288;10.458;2022-08-14T04:34:38;19.50;99.90
7240;DHT22;3661;53.288;10.458;2022-08-14T04:37:11;19.40;99.90
7240;DHT22;3661;53.288;10.458;2022-08-14T04:40:00;19.40;99.90
7240;DHT22;3661;53.288;10.458;2022-08-14T04:42:52;19.40;99.90
7240;DHT22;3661;53.288;10.458;2022-08-14T04:45:44;19.40;99.90
7240;DHT22;3661;53.288;10.458;2022-08-14T04:48:16;19.40;99.90
7240;DHT22;3661;53.288;10.458;2022-08-14T04:50:51;19.40;99.90
7240;DHT22;3661;53.288;10.458;2022-08-14T04:53:25;19.40;99.90
7240;DHT22;3661;53.288;10.458;2022-08-14T04:55:59;19.40;99.90
7240;DHT22;3661;53.288;10.458;2022-08-14T04:58:33;19.50;99.90
7240;DHT22;3661;53.288;10.458;2022-08-14T05:01:07;19.50;99.90
7240;DHT22;3661;53.288;10.458;2022-08-14T05:03:40;19.50;99.90
7240;DHT22;3661;53.288;10.458;2022-08-14T05:06:12;19.60;99.90
7240;DHT22;3661;53.288;10.458;2022-08-14T05:08:44;19.60;99.90
7240;DHT22;3661;53.288;10.458;2022-08-14T05:11:16;19.70;99.90
7240;DHT22;3661;53.288;10.458;2022-08-14T05:13:50;19.70;99.90
7240;DHT22;3661;53.288;10.458;2022-08-14T05:16:22;19.80;99.90
7240;DHT22;3661;53.288;10.458;2022-08-14T05:19:00;19.80;99.90
7240;DHT22;3661;53.288;10.458;2022-08-14T05:21:34;19.90;99.90
7240;DHT22;3661;53.288;10.458;2022-08-14T05:24:06;19.90;99.90
7240;DHT22;3661;53.288;10.458;2022-08-14T05:26:41;20.00;99.90
7240;DHT22;3661;53.288;10.458;2022-08-14T05:29:16;20.00;99.90
7240;DHT22;3661;53.288;10.458;2022-08-14T05:31:48;20.00;99.90
7240;DHT22;3661;53.288;10.458;2022-08-14T05:37:59;20.10;99.90
7240;DHT22;3661;53.288;10.458;2022-08-14T05:40:31;20.20;99.90
7240;DHT22;3661;53.288;10.458;2022-08-14T05:43:04;20.20;99.90
7240;DHT22;3661;53.288;10.458;2022-08-14T05:45:38;20.20;99.90
7240;DHT22;3661;53.288;10.458;2022-08-14T05:48:13;20.20;99.90
7240;DHT22;3661;53.288;10.458;2022-08-14T05:50:45;20.30;99.90
7240;DHT22;3661;53.288;10.458;2022-08-14T05:53:17;20.30;99.90
7240;DHT22;3661;53.288;10.458;2022-08-14T05:55:50;20.40;99.90
7240;DHT22;3661;53.288;10.458;2022-08-14T05:58:22;20.40;99.90
7240;DHT22;3661;53.288;10.458;2022-08-14T06:00:56;20.50;99.90
7240;DHT22;3661;53.288;10.458;2022-08-14T06:03:28;20.50;99.90
7240;DHT22;3661;53.288;10.458;2022-08-14T06:06:00;20.50;99.90
7240;DHT22;3661;53.288;10.458;2022-08-14T06:08:32;20.60;99.90
7240;DHT22;3661;53.288;10.458;2022-08-14T06:11:07;20.60;99.90
7240;DHT22;3661;53.288;10.458;2022-08-14T06:13:40;20.70;99.90
7240;DHT22;3661;53.288;10.458;2022-08-14T06:16:15;20.70;99.90
7240;DHT22;3661;53.288;10.458;2022-08-14T06:18:48;20.80;99.90
7240;DHT22;3661;53.288;10.458;2022-08-14T06:21:21;20.80;99.90
7240;DHT22;3661;53.288;10.458;2022-08-14T06:23:53;20.90;99.90
7240;DHT22;3661;53.288;10.458;2022-08-14T06:26:28;20.90;99.90
7240;DHT22;3661;53.288;10.458;2022-08-14T06:29:00;21.10;99.90
7240;DHT22;3661;53.288;10.458;2022-08-14T06:31:34;21.10;99.90
7240;DHT22;3661;53.288;10.458;2022-08-14T06:34:06;21.20;99.90
7240;DHT22;3661;53.288;10.458;2022-08-14T06:36:38;21.30;99.90
7240;DHT22;3661;53.288;10.458;2022-08-14T06:39:10;21.40;99.90
7240;DHT22;3661;53.288;10.458;2022-08-14T06:41:42;21.50;99.90
7240;DHT22;3661;53.288;10.458;2022-08-14T06:44:17;21.60;99.90
7240;DHT22;3661;53.288;10.458;2022-08-14T06:46:52;21.70;99.90
7240;DHT22;3661;53.288;10.458;2022-08-14T06:49:25;21.80;99.90
7240;DHT22;3661;53.288;10.458;2022-08-14T06:51:57;21.90;99.90
7240;DHT22;3661;53.288;10.458;2022-08-14T06:54:30;21.90;99.90
7240;DHT22;3661;53.288;10.458;2022-08-14T06:57:02;22.00;99.90
7240;DHT22;3661;53.288;10.458;2022-08-14T06:59:34;22.10;99.90
7240;DHT22;3661;53.288;10.458;2022-08-14T07:02:08;22.10;99.90
7240;DHT22;3661;53.288;10.458;2022-08-14T07:04:57;22.20;99.90
7240;DHT22;3661;53.288;10.458;2022-08-14T07:07:47;22.30;99.90
7240;DHT22;3661;53.288;10.458;2022-08-14T07:10:19;22.30;99.90
7240;DHT22;3661;53.288;10.458;2022-08-14T07:12:52;22.40;99.90
7240;DHT22;3661;53.288;10.458;2022-08-14T07:15:24;22.50;99.90
7240;DHT22;3661;53.288;10.458;2022-08-14T07:17:58;22.50;99.90
7240;DHT22;3661;53.288;10.458;2022-08-14T07:20:30;22.60;99.90
7240;DHT22;3661;53.288;10.458;2022-08-14T07:23:04;22.70;99.90
7240;DHT22;3661;53.288;10.458;2022-08-14T07:25:37;22.80;99.90
7240;DHT22;3661;53.288;10.458;2022-08-14T07:28:10;22.90;99.90
7240;DHT22;3661;53.288;10.458;2022-08-14T07:30:44;23.00;99.90
7240;DHT22;3661;53.288;10.458;2022-08-14T07:33:18;23.10;99.90
7240;DHT22;3661;53.288;10.458;2022-08-14T07:35:51;23.10;99.90
7240;DHT22;3661;53.288;10.458;2022-08-14T07:38:23;23.20;99.90
7240;DHT22;3661;53.288;10.458;2022-08-14T07:40:56;23.30;99.90
7240;DHT22;3661;53.288;10.458;2022-08-14T07:43:29;23.30;99.90
7240;DHT22;3661;53.288;10.458;2022-08-14T07:46:01;23.40;99.90
7240;DHT22;3661;53.288;10.458;2022-08-14T07:48:38;23.40;99.90
7240;DHT22;3661;53.288;10.458;2022-08-14T07:51:10;23.50;99.90
7240;DHT22;3661;53.288;10.458;2022-08-14T07:53:43;23.60;99.90
7240;DHT22;3661;53.288;10.458;2022-08-14T07:56:16;23.60;99.90
7240;DHT22;3661;53.288;10.458;2022-08-14T07:58:48;23.70;99.90
7240;DHT22;3661;53.288;10.458;2022-08-14T08:01:20;23.70;99.90
7240;DHT22;3661;53.288;10.458;2022-08-14T08:03:55;23.80;99.90
7240;DHT22;3661;53.288;10.458;2022-08-14T08:06:30;23.90;99.90
7240;DHT22;3661;53.288;10.458;2022-08-14T08:09:03;24.00;99.90
7240;DHT22;3661;53.288;10.458;2022-08-14T08:11:36;24.10;99.90
7240;DHT22;3661;53.288;10.458;2022-08-14T08:14:08;24.20;99.90
7240;DHT22;3661;53.288;10.458;2022-08-14T08:16:41;24.30;99.90
7240;DHT22;3661;53.288;10.458;2022-08-14T08:19:15;24.50;99.90
7240;DHT22;3661;53.288;10.458;2022-08-14T08:21:48;24.60;99.90
7240;DHT22;3661;53.288;10.458;2022-08-14T08:24:21;24.80;99.90
7240;DHT22;3661;53.288;10.458;2022-08-14T08:26:54;25.00;99.90
7240;DHT22;3661;53.288;10.458;2022-08-14T08:29:27;25.10;99.90
7240;DHT22;3661;53.288;10.458;2022-08-14T08:31:59;25.30;99.90
7240;DHT22;3661;53.288;10.458;2022-08-14T08:34:42;25.50;99.90
7240;DHT22;3661;53.288;10.458;2022-08-14T08:37:15;25.80;99.90
7240;DHT22;3661;53.288;10.458;2022-08-14T08:39:48;26.00;99.90
7240;DHT22;3661;53.288;10.458;2022-08-14T08:42:23;26.20;99.90
7240;DHT22;3661;53.288;10.458;2022-08-14T08:44:56;26.40;99.90
7240;DHT22;3661;53.288;10.458;2022-08-14T08:47:37;26.50;99.30
7240;DHT22;3661;53.288;10.458;2022-08-14T08:50:20;26.60;98.20
7240;DHT22;3661;53.288;10.458;2022-08-14T08:52:53;26.60;97.50
7240;DHT22;3661;53.288;10.458;2022-08-14T08:55:31;26.70;98.10
7240;DHT22;3661;53.288;10.458;2022-08-14T08:58:06;26.80;98.00
7240;DHT22;3661;53.288;10.458;2022-08-14T09:00:40;26.90;97.90
7240;DHT22;3661;53.288;10.458;2022-08-14T09:03:16;26.90;96.70
7240;DHT22;3661;53.288;10.458;2022-08-14T09:05:53;27.00;96.30
7240;DHT22;3661;53.288;10.458;2022-08-14T09:08:27;27.00;96.10
7240;DHT22;3661;53.288;10.458;2022-08-14T09:11:01;27.10;96.00
7240;DHT22;3661;53.288;10.458;2022-08-14T09:13:34;27.20;96.40
7240;DHT22;3661;53.288;10.458;2022-08-14T09:16:07;27.30;96.00
7240;DHT22;3661;53.288;10.458;2022-08-14T09:18:39;27.40;96.00
7240;DHT22;3661;53.288;10.458;2022-08-14T09:21:13;27.60;96.00
7240;DHT22;3661;53.288;10.458;2022-08-14T09:23:48;27.70;96.00
7240;DHT22;3661;53.288;10.458;2022-08-14T09:26:20;27.80;95.60
7240;DHT22;3661;53.288;10.458;2022-08-14T09:28:52;28.00;95.30
7240;DHT22;3661;53.288;10.458;2022-08-14T09:31:25;28.10;94.80
7240;DHT22;3661;53.288;10.458;2022-08-14T09:34:07;28.10;94.40
7240;DHT22;3661;53.288;10.458;2022-08-14T09:37:05;28.20;94.40
7240;DHT22;3661;53.288;10.458;2022-08-14T09:39:49;28.20;94.70
7240;DHT22;3661;53.288;10.458;2022-08-14T09:42:48;28.40;94.60
7240;DHT22;3661;53.288;10.458;2022-08-14T09:45:30;28.40;94.40
7240;DHT22;3661;53.288;10.458;2022-08-14T09:48:13;28.50;94.40
7240;DHT22;3661;53.288;10.458;2022-08-14T09:50:59;28.50;93.60
7240;DHT22;3661;53.288;10.458;2022-08-14T09:53:59;28.60;94.00
7240;DHT22;3661;53.288;10.458;2022-08-14T09:56:45;28.80;94.00
7240;DHT22;3661;53.288;10.458;2022-08-14T09:59:17;29.10;95.60
7240;DHT22;3661;53.288;10.458;2022-08-14T10:01:51;29.30;96.00
7240;DHT22;3661;53.288;10.458;2022-08-14T10:04:26;29.70;96.20
7240;DHT22;3661;53.288;10.458;2022-08-14T10:06:59;29.80;95.70
7240;DHT22;3661;53.288;10.458;2022-08-14T10:09:32;30.00;94.90
7240;DHT22;3661;53.288;10.458;2022-08-14T10:12:05;30.10;93.20
7240;DHT22;3661;53.288;10.458;2022-08-14T10:14:37;30.10;92.60
7240;DHT22;3661;53.288;10.458;2022-08-14T10:17:21;30.20;93.10
7240;DHT22;3661;53.288;10.458;2022-08-14T10:19:56;30.20;92.30
7240;DHT22;3661;53.288;10.458;2022-08-14T10:22:28;30.10;91.80
7240;DHT22;3661;53.288;10.458;2022-08-14T10:25:12;30.00;91.40
7240;DHT22;3661;53.288;10.458;2022-08-14T10:27:44;30.00;91.30
7240;DHT22;3661;53.288;10.458;2022-08-14T10:30:32;29.90;91.30
7240;DHT22;3661;53.288;10.458;2022-08-14T10:33:07;29.80;91.20
7240;DHT22;3661;53.288;10.458;2022-08-14T10:35:40;29.70;91.30
7240;DHT22;3661;53.288;10.458;2022-08-14T10:38:13;29.70;91.50
7240;DHT22;3661;53.288;10.458;2022-08-14T10:40:46;29.70;91.60
7240;DHT22;3661;53.288;10.458;2022-08-14T10:43:22;29.60;91.50
7240;DHT22;3661;53.288;10.458;2022-08-14T10:45:56;29.50;91.50
7240;DHT22;3661;53.288;10.458;2022-08-14T10:48:31;29.50;91.60
7240;DHT22;3661;53.288;10.458;2022-08-14T10:51:03;29.50;91.70
7240;DHT22;3661;53.288;10.458;2022-08-14T10:53:36;29.70;92.20
7240;DHT22;3661;53.288;10.458;2022-08-14T10:56:11;29.80;92.40
7240;DHT22;3661;53.288;10.458;2022-08-14T10:58:43;30.00;92.60
7240;DHT22;3661;53.288;10.458;2022-08-14T11:01:15;30.30;93.30
7240;DHT22;3661;53.288;10.458;2022-08-14T11:03:48;30.50;92.80
7240;DHT22;3661;53.288;10.458;2022-08-14T11:06:20;30.70;91.50
7240;DHT22;3661;53.288;10.458;2022-08-14T11:08:53;30.90;89.70
7240;DHT22;3661;53.288;10.458;2022-08-14T11:11:26;31.00;89.20
7240;DHT22;3661;53.288;10.458;2022-08-14T11:13:59;31.10;88.80
7240;DHT22;3661;53.288;10.458;2022-08-14T11:16:31;31.20;86.70
7240;DHT22;3661;53.288;10.458;2022-08-14T11:19:06;31.20;86.90
7240;DHT22;3661;53.288;10.458;2022-08-14T11:21:40;31.30;87.80
7240;DHT22;3661;53.288;10.458;2022-08-14T11:24:15;31.40;88.50
7240;DHT22;3661;53.288;10.458;2022-08-14T11:26:50;31.60;87.30
7240;DHT22;3661;53.288;10.458;2022-08-14T11:29:23;31.80;87.40
7240;DHT22;3661;53.288;10.458;2022-08-14T11:31:57;32.00;85.60
7240;DHT22;3661;53.288;10.458;2022-08-14T11:34:30;32.20;86.80
7240;DHT22;3661;53.288;10.458;2022-08-14T11:37:12;32.50;86.30
7240;DHT22;3661;53.288;10.458;2022-08-14T11:39:44;32.60;86.10
7240;DHT22;3661;53.288;10.458;2022-08-14T11:42:24;32.80;84.80
7240;DHT22;3661;53.288;10.458;2022-08-14T11:44:59;32.90;85.10
7240;DHT22;3661;53.288;10.458;2022-08-14T11:47:36;33.00;83.70
7240;DHT22;3661;53.288;10.458;2022-08-14T11:50:13;33.10;83.40
7240;DHT22;3661;53.288;10.458;2022-08-14T11:52:45;33.20;83.50
7240;DHT22;3661;53.288;10.458;2022-08-14T11:55:18;33.30;83.90
7240;DHT22;3661;53.288;10.458;2022-08-14T11:57:59;33.60;85.10
7240;DHT22;3661;53.288;10.458;2022-08-14T12:00:43;33.70;80.90
7240;DHT22;3661;53.288;10.458;2022-08-14T12:03:16;33.70;79.70
7240;DHT22;3661;53.288;10.458;2022-08-14T12:05:48;33.70;79.30
7240;DHT22;3661;53.288;10.458;2022-08-14T12:08:21;34.00;81.10
7240;DHT22;3661;53.288;10.458;2022-08-14T12:11:05;34.20;81.00
7240;DHT22;3661;53.288;10.458;2022-08-14T12:13:39;34.30;78.20
7240;DHT22;3661;53.288;10.458;2022-08-14T12:16:14;34.60;79.40
7240;DHT22;3661;53.288;10.458;2022-08-14T12:18:47;34.60;75.10
7240;DHT22;3661;53.288;10.458;2022-08-14T12:21:22;34.60;77.60
7240;DHT22;3661;53.288;10.458;2022-08-14T12:24:03;34.60;75.50
7240;DHT22;3661;53.288;10.458;2022-08-14T12:26:35;34.60;75.10
7240;DHT22;3661;53.288;10.458;2022-08-14T12:29:11;34.50;74.90
7240;DHT22;3661;53.288;10.458;2022-08-14T12:31:44;34.50;75.40
7240;DHT22;3661;53.288;10.458;2022-08-14T12:34:16;34.50;74.30
7240;DHT22;3661;53.288;10.458;2022-08-14T12:37:00;34.50;73.90
7240;DHT22;3661;53.288;10.458;2022-08-14T12:39:35;34.50;74.80
7240;DHT22;3661;53.288;10.458;2022-08-14T12:42:07;34.50;75.30
7240;DHT22;3661;53.288;10.458;2022-08-14T12:44:42;34.40;73.50
7240;DHT22;3661;53.288;10.458;2022-08-14T12:47:14;34.40;73.00
7240;DHT22;3661;53.288;10.458;2022-08-14T12:49:48;34.30;74.00
7240;DHT22;3661;53.288;10.458;2022-08-14T12:52:27;34.40;74.80
7240;DHT22;3661;53.288;10.458;2022-08-14T12:55:03;34.60;74.10
7240;DHT22;3661;53.288;10.458;2022-08-14T12:57:38;34.80;75.40
7240;DHT22;3661;53.288;10.458;2022-08-14T13:00:35;35.10;75.10
7240;DHT22;3661;53.288;10.458;2022-08-14T13:03:08;35.40;75.10
7240;DHT22;3661;53.288;10.458;2022-08-14T13:05:40;35.70;74.10
7240;DHT22;3661;53.288;10.458;2022-08-14T13:08:12;35.80;71.20
7240;DHT22;3661;53.288;10.458;2022-08-14T13:10:46;35.80;69.70
7240;DHT22;3661;53.288;10.458;2022-08-14T13:13:19;35.80;70.10
7240;DHT22;3661;53.288;10.458;2022-08-14T13:15:53;35.80;69.60
7240;DHT22;3661;53.288;10.458;2022-08-14T13:18:26;35.70;69.60
7240;DHT22;3661;53.288;10.458;2022-08-14T13:21:01;35.70;69.60
7240;DHT22;3661;53.288;10.458;2022-08-14T13:23:36;35.60;69.50
7240;DHT22;3661;53.288;10.458;2022-08-14T13:26:10;35.70;70.10
7240;DHT22;3661;53.288;10.458;2022-08-14T13:28:42;35.80;69.60
7240;DHT22;3661;53.288;10.458;2022-08-14T13:31:23;35.90;69.30
7240;DHT22;3661;53.288;10.458;2022-08-14T13:33:57;35.90;69.20
7240;DHT22;3661;53.288;10.458;2022-08-14T13:36:31;35.80;68.50
7240;DHT22;3661;53.288;10.458;2022-08-14T13:39:22;35.70;68.60
7240;DHT22;3661;53.288;10.458;2022-08-14T13:41:55;35.70;69.30
7240;DHT22;3661;53.288;10.458;2022-08-14T13:44:35;35.80;70.10
7240;DHT22;3661;53.288;10.458;2022-08-14T13:47:10;36.00;70.00
7240;DHT22;3661;53.288;10.458;2022-08-14T13:49:44;36.00;67.70
7240;DHT22;3661;53.288;10.458;2022-08-14T13:52:19;35.90;67.10
7240;DHT22;3661;53.288;10.458;2022-08-14T13:54:53;35.80;67.30
7240;DHT22;3661;53.288;10.458;2022-08-14T13:57:27;35.80;68.00
7240;DHT22;3661;53.288;10.458;2022-08-14T14:00:03;35.90;68.20
7240;DHT22;3661;53.288;10.458;2022-08-14T14:02:47;35.90;67.70
7240;DHT22;3661;53.288;10.458;2022-08-14T14:08:12;35.90;67.30
7240;DHT22;3661;53.288;10.458;2022-08-14T14:10:46;35.80;67.00
7240;DHT22;3661;53.288;10.458;2022-08-14T14:13:19;35.70;67.30
7240;DHT22;3661;53.288;10.458;2022-08-14T14:15:51;35.50;67.80
7240;DHT22;3661;53.288;10.458;2022-08-14T14:18:26;35.40;68.30
7240;DHT22;3661;53.288;10.458;2022-08-14T14:20:58;35.20;67.10
7240;DHT22;3661;53.288;10.458;2022-08-14T14:23:33;35.10;67.90
7240;DHT22;3661;53.288;10.458;2022-08-14T14:26:06;35.00;68.20
7240;DHT22;3661;53.288;10.458;2022-08-14T14:28:39;35.00;68.80
7240;DHT22;3661;53.288;10.458;2022-08-14T14:31:12;35.10;69.70
7240;DHT22;3661;53.288;10.458;2022-08-14T14:33:47;35.10;68.80
7240;DHT22;3661;53.288;10.458;2022-08-14T14:36:23;35.10;68.70
7240;DHT22;3661;53.288;10.458;2022-08-14T14:38:58;35.10;68.50
7240;DHT22;3661;53.288;10.458;2022-08-14T14:41:31;35.20;68.30
7240;DHT22;3661;53.288;10.458;2022-08-14T14:44:04;35.20;68.20
7240;DHT22;3661;53.288;10.458;2022-08-14T14:46:38;35.10;68.00
7240;DHT22;3661;53.288;10.458;2022-08-14T14:49:14;35.10;67.80
7240;DHT22;3661;53.288;10.458;2022-08-14T14:51:48;34.90;67.80
7240;DHT22;3661;53.288;10.458;2022-08-14T14:54:21;34.90;67.70
7240;DHT22;3661;53.288;10.458;2022-08-14T14:56:54;34.80;67.80
7240;DHT22;3661;53.288;10.458;2022-08-14T14:59:27;34.80;68.10
7240;DHT22;3661;53.288;10.458;2022-08-14T15:02:02;34.80;67.70
7240;DHT22;3661;53.288;10.458;2022-08-14T15:04:38;34.70;68.10
7240;DHT22;3661;53.288;10.458;2022-08-14T15:07:10;34.80;68.40
7240;DHT22;3661;53.288;10.458;2022-08-14T15:09:43;34.80;68.20
7240;DHT22;3661;53.288;10.458;2022-08-14T15:12:15;34.80;68.00
7240;DHT22;3661;53.288;10.458;2022-08-14T15:14:47;34.80;67.20
7240;DHT22;3661;53.288;10.458;2022-08-14T15:17:19;34.60;67.00
7240;DHT22;3661;53.288;10.458;2022-08-14T15:19:54;34.40;66.80
7240;DHT22;3661;53.288;10.458;2022-08-14T15:22:26;34.20;67.10
7240;DHT22;3661;53.288;10.458;2022-08-14T15:24:58;34.10;67.40
7240;DHT22;3661;53.288;10.458;2022-08-14T15:27:31;34.10;68.10
7240;DHT22;3661;53.288;10.458;2022-08-14T15:30:05;34.10;68.10
7240;DHT22;3661;53.288;10.458;2022-08-14T15:32:38;34.00;68.20
7240;DHT22;3661;53.288;10.458;2022-08-14T15:35:12;33.90;68.30
7240;DHT22;3661;53.288;10.458;2022-08-14T15:37:44;33.90;68.00
7240;DHT22;3661;53.288;10.458;2022-08-14T15:40:18;33.90;67.70
7240;DHT22;3661;53.288;10.458;2022-08-14T15:42:50;33.80;67.30
7240;DHT22;3661;53.288;10.458;2022-08-14T15:45:22;33.70;67.20
7240;DHT22;3661;53.288;10.458;2022-08-14T15:47:54;33.70;68.00
7240;DHT22;3661;53.288;10.458;2022-08-14T15:50:28;33.80;67.90
7240;DHT22;3661;53.288;10.458;2022-08-14T15:53:00;33.80;67.50
7240;DHT22;3661;53.288;10.458;2022-08-14T15:55:33;33.90;67.40
7240;DHT22;3661;53.288;10.458;2022-08-14T15:58:08;33.90;67.10
7240;DHT22;3661;53.288;10.458;2022-08-14T16:00:40;33.90;67.60
7240;DHT22;3661;53.288;10.458;2022-08-14T16:03:30;33.90;67.60
7240;DHT22;3661;53.288;10.458;2022-08-14T16:06:05;34.00;68.10
7240;DHT22;3661;53.288;10.458;2022-08-14T16:08:38;34.10;68.20
7240;DHT22;3661;53.288;10.458;2022-08-14T16:11:11;34.10;67.80
7240;DHT22;3661;53.288;10.458;2022-08-14T16:13:43;34.10;67.80
7240;DHT22;3661;53.288;10.458;2022-08-14T16:16:18;34.10;67.70
7240;DHT22;3661;53.288;10.458;2022-08-14T16:18:51;34.00;67.60
7240;DHT22;3661;53.288;10.458;2022-08-14T16:21:29;33.90;67.30
7240;DHT22;3661;53.288;10.458;2022-08-14T16:24:02;33.90;67.20
7240;DHT22;3661;53.288;10.458;2022-08-14T16:26:35;33.70;67.50
7240;DHT22;3661;53.288;10.458;2022-08-14T16:29:08;33.70;67.40
7240;DHT22;3661;53.288;10.458;2022-08-14T16:31:45;33.60;67.60
7240;DHT22;3661;53.288;10.458;2022-08-14T16:34:18;33.60;67.70
7240;DHT22;3661;53.288;10.458;2022-08-14T16:36:54;33.50;67.60